createdAt,value
2022-12-12T00:04:50.000Z,0.20
2022-12-12T00:09:41.099Z,0.14
2022-12-12T00:14:41.227Z,0.04
2022-12-12T00:19:43.726Z,0.03
2022-12-12T00:24:36.486Z,-0.10
2022-12-12T00:29:29.556Z,-0.14
2022-12-12T00:34:26.366Z,-0.20
2022-12-12T00:39:20.833Z,-0.28
2022-12-12T00:44:11.626Z,-0.57
2022-12-12T00:49:23.007Z,-0.43
2022-12-12T00:54:18.161Z,-0.50
2022-12-12T00:59:29.240Z,-0.52
2022-12-12T01:04:24.741Z,-0.68
2022-12-12T01:09:15.220Z,-0.61
2022-12-12T01:14:09.527Z,-0.68
2022-12-12T01:19:12.891Z,-0.72
2022-12-12T01:24:05.144Z,-0.82
2022-12-12T01:29:01.147Z,-0.83
2022-12-12T01:33:53.930Z,-0.87
2022-12-12T01:38:57.849Z,-0.91
2022-12-12T01:43:49.648Z,-1.02
2022-12-12T01:48:48.043Z,-0.97
2022-12-12T01:53:42.895Z,-1.01
2022-12-12T01:58:39.443Z,-1.08
2022-12-12T02:03:35.148Z,-1.08
2022-12-12T02:08:44.128Z,-1.12
2022-12-12T02:13:48.519Z,-1.21
2022-12-12T02:18:50.120Z,-1.20
2022-12-12T02:24:19.361Z,-1.23
2022-12-12T02:29:56.930Z,-1.27
2022-12-12T02:34:59.198Z,-1.30
2022-12-12T02:40:01.510Z,-1.33
2022-12-12T02:45:10.909Z,-1.40
2022-12-12T02:50:14.489Z,-1.39
2022-12-12T02:55:13.884Z,-1.41
2022-12-12T03:00:10.562Z,-1.45
2022-12-12T03:05:37.942Z,-1.49
2022-12-12T03:10:45.508Z,-1.54
2022-12-12T03:15:49.444Z,-1.53
2022-12-12T03:20:51.326Z,-1.56
2022-12-12T03:25:54.370Z,-1.58
2022-12-12T03:31:02.360Z,-1.62
2022-12-12T03:36:04.526Z,-1.67
2022-12-12T03:41:06.114Z,-1.70
2022-12-12T03:46:01.980Z,-1.72
2022-12-12T03:50:59.618Z,-1.81
2022-12-12T03:56:21.254Z,-1.78
2022-12-12T04:01:22.271Z,-1.82
2022-12-12T04:06:35.853Z,-1.89
2022-12-12T04:11:40.669Z,-1.89
2022-12-12T04:16:37.252Z,-1.95
2022-12-12T04:21:52.162Z,-1.93
2022-12-12T04:26:53.447Z,-1.95
2022-12-12T04:31:56.948Z,-1.97
2022-12-12T04:37:10.236Z,-2.00
2022-12-12T04:42:06.844Z,-2.01
2022-12-12T04:47:04.311Z,-2.03
2022-12-12T04:52:00.490Z,-2.11
2022-12-12T04:57:08.363Z,-2.08
2022-12-12T05:02:12.071Z,-2.09
2022-12-12T05:07:15.383Z,-2.13
2022-12-12T05:12:10.206Z,-2.13
2022-12-12T05:17:18.124Z,-2.17
2022-12-12T05:22:14.135Z,-2.21
2022-12-12T05:27:17.601Z,-2.39
2022-12-12T05:32:09.339Z,-2.26
2022-12-12T05:37:07.974Z,-2.29
2022-12-12T05:42:01.133Z,-2.37
2022-12-12T05:47:07.598Z,-2.48
2022-12-12T05:51:59.178Z,-2.37
2022-12-12T05:56:57.817Z,-2.40
2022-12-12T06:01:51.242Z,-2.47
2022-12-12T06:06:48.044Z,-2.51
2022-12-12T06:11:40.312Z,-2.45
2022-12-12T06:16:37.466Z,-2.47
2022-12-12T06:21:29.890Z,-2.53
2022-12-12T06:26:26.308Z,-2.51
2022-12-12T06:31:19.593Z,-2.60
2022-12-12T06:36:17.371Z,-2.58
2022-12-12T06:41:15.514Z,-2.61
2022-12-12T06:46:20.351Z,-2.63
2022-12-12T06:51:21.626Z,-2.71
2022-12-12T06:56:17.980Z,-2.72
2022-12-12T07:01:15.376Z,-2.74
2022-12-12T07:06:11.839Z,-2.78
2022-12-12T07:11:23.401Z,-2.80
2022-12-12T07:16:20.580Z,-2.82
2022-12-12T07:21:16.749Z,-2.86
2022-12-12T07:26:27.657Z,-2.87
2022-12-12T07:31:29.289Z,-2.95
2022-12-12T07:36:23.914Z,-2.95
2022-12-12T07:41:20.785Z,-2.91
2022-12-12T07:46:18.132Z,-3.01
2022-12-12T07:51:17.377Z,-3.11
2022-12-12T07:56:15.330Z,-2.96
2022-12-12T08:01:14.930Z,-3.00
2022-12-12T08:06:30.419Z,-2.95
2022-12-12T08:11:45.939Z,-2.96
2022-12-12T08:16:55.804Z,-2.96
2022-12-12T08:21:54.436Z,-3.00
2022-12-12T08:26:58.119Z,-2.99
2022-12-12T08:31:48.415Z,-3.35
2022-12-12T08:36:46.047Z,-2.92
2022-12-12T08:42:00.887Z,-2.86
2022-12-12T08:47:01.445Z,-2.85
2022-12-12T08:51:56.675Z,-2.91
2022-12-12T08:56:51.648Z,-2.86
2022-12-12T09:01:52.922Z,-2.77
2022-12-12T09:06:53.764Z,-2.73
2022-12-12T09:11:50.792Z,-2.70
2022-12-12T09:16:44.101Z,-2.73
2022-12-12T09:21:41.045Z,-2.63
2022-12-12T09:26:40.479Z,-2.63
2022-12-12T09:31:44.561Z,-2.54
2022-12-12T09:36:35.674Z,-2.51
2022-12-12T09:41:31.505Z,-2.50
2022-12-12T09:46:39.065Z,-1.85
2022-12-12T09:51:34.556Z,-1.32
2022-12-12T09:56:34.374Z,-0.69
2022-12-12T10:01:40.756Z,-0.20
2022-12-12T10:06:55.172Z,0.07
2022-12-12T10:12:02.153Z,0.27
2022-12-12T10:17:18.876Z,0.28
2022-12-12T10:22:26.297Z,0.35
2022-12-12T10:27:33.782Z,0.23
2022-12-12T10:32:49.091Z,0.27
2022-12-12T10:37:53.374Z,0.22
2022-12-12T10:43:03.061Z,0.28
2022-12-12T10:48:05.913Z,0.20
2022-12-12T10:53:02.312Z,0.04
2022-12-12T10:58:15.820Z,0.13
2022-12-12T11:03:32.585Z,0.09
2022-12-12T11:08:34.513Z,0.11
2022-12-12T11:13:31.162Z,0.13
2022-12-12T11:18:30.568Z,0.21
2022-12-12T11:23:38.300Z,0.24
2022-12-12T11:28:53.195Z,0.19
2022-12-12T11:33:54.491Z,0.23
2022-12-12T11:38:56.316Z,0.30
2022-12-12T11:44:01.788Z,0.34
2022-12-12T11:49:07.374Z,0.38
2022-12-12T11:53:57.930Z,0.62
2022-12-12T11:59:06.067Z,0.65
2022-12-12T12:04:29.747Z,0.67
2022-12-12T12:09:36.278Z,0.57
2022-12-12T12:15:06.646Z,0.70
2022-12-12T12:20:15.610Z,0.71
2022-12-12T12:25:38.688Z,0.74
2022-12-12T12:30:45.318Z,0.87
2022-12-12T12:35:56.313Z,1.18
2022-12-12T12:41:04.444Z,1.58
2022-12-12T12:46:02.063Z,1.71
2022-12-12T12:51:14.295Z,1.59
2022-12-12T12:56:23.606Z,1.55
2022-12-12T13:01:24.137Z,1.52
2022-12-12T13:06:25.697Z,1.40
2022-12-12T13:11:32.115Z,1.33
2022-12-12T13:16:28.601Z,1.31
2022-12-12T13:21:35.994Z,1.28
2022-12-12T13:26:41.304Z,1.36
2022-12-12T13:32:06.706Z,1.42
2022-12-12T13:37:05.226Z,1.44
2022-12-12T13:42:07.012Z,1.24
2022-12-12T13:47:11.075Z,1.43
2022-12-12T13:52:31.825Z,1.47
2022-12-12T13:57:43.955Z,1.45
2022-12-12T14:02:45.223Z,1.47
2022-12-12T14:07:40.207Z,1.45
2022-12-12T14:12:36.265Z,1.40
2022-12-12T14:17:28.337Z,1.46
2022-12-12T14:22:30.625Z,1.46
2022-12-12T14:27:58.936Z,1.43
2022-12-12T14:33:20.942Z,1.39
2022-12-12T14:38:37.246Z,1.32
2022-12-12T14:44:37.297Z,1.33
2022-12-12T14:49:19.435Z,1.30
2022-12-12T14:54:25.509Z,1.18
2022-12-12T14:59:29.990Z,1.19
2022-12-12T15:04:33.396Z,1.14
2022-12-12T15:09:42.568Z,1.04
2022-12-12T15:14:46.790Z,0.94
2022-12-12T15:19:49.447Z,0.80
2022-12-12T15:24:44.773Z,0.69
2022-12-12T15:29:35.493Z,0.56
2022-12-12T15:34:49.451Z,0.41
2022-12-12T15:39:48.643Z,0.19
2022-12-12T15:44:42.410Z,0.12
2022-12-12T15:49:44.359Z,0.00
2022-12-12T15:55:01.750Z,-0.18
2022-12-12T16:00:01.372Z,-0.32
2022-12-12T16:05:06.712Z,-0.35
2022-12-12T16:10:07.461Z,-0.45
2022-12-12T16:15:00.082Z,-0.59
2022-12-12T16:20:09.454Z,-0.62
2022-12-12T16:25:27.448Z,-0.69
2022-12-12T16:30:24.416Z,-0.76
2022-12-12T16:35:28.479Z,-0.83
2022-12-12T16:40:29.700Z,-0.96
2022-12-12T16:45:37.042Z,-0.98
2022-12-12T16:50:36.208Z,-1.29
2022-12-12T16:55:31.487Z,-1.10
2022-12-12T17:00:23.100Z,-1.16
2022-12-12T17:05:30.317Z,-1.20
2022-12-12T17:10:32.961Z,-1.32
2022-12-12T17:15:31.001Z,-1.29
2022-12-12T17:20:25.838Z,-1.34
2022-12-12T17:25:19.963Z,-1.38
2022-12-12T17:30:18.684Z,-1.42
2022-12-12T17:35:17.165Z,-1.49
2022-12-12T17:40:16.780Z,-1.58
2022-12-12T17:45:13.419Z,-1.52
2022-12-12T17:50:10.190Z,-1.58
2022-12-12T17:55:55.296Z,-1.96
2022-12-12T18:00:15.979Z,-1.67
2022-12-12T18:05:17.028Z,-1.75
2022-12-12T18:10:15.956Z,-1.77
2022-12-12T18:15:10.776Z,-1.83
2022-12-12T18:20:08.537Z,-1.88
2022-12-12T18:25:10.756Z,-1.89
2022-12-12T18:30:07.651Z,-1.94
2022-12-12T18:35:08.613Z,-1.97
2022-12-12T18:40:07.345Z,-2.06
2022-12-12T18:45:03.087Z,-2.07
2022-12-12T18:49:59.288Z,-2.12
2022-12-12T18:54:58.626Z,-2.15
2022-12-12T19:00:15.929Z,-2.22
2022-12-12T19:05:16.426Z,-2.30
2022-12-12T19:10:10.731Z,-2.40
2022-12-12T19:15:17.605Z,-2.34
2022-12-12T19:20:21.206Z,-2.38
2022-12-12T19:25:13.701Z,-2.43
2022-12-12T19:30:06.927Z,-2.49
2022-12-12T19:35:05.760Z,-2.48
2022-12-12T19:40:06.730Z,-2.53
2022-12-12T19:45:01.793Z,-2.59
2022-12-12T19:49:56.339Z,-2.62
2022-12-12T19:54:57.501Z,-2.73
2022-12-12T19:59:52.400Z,-2.78
2022-12-12T20:04:46.245Z,-2.76
2022-12-12T20:09:43.451Z,-2.75
2022-12-12T20:14:48.968Z,-2.79
2022-12-12T20:19:40.458Z,-2.80
2022-12-12T20:24:32.784Z,-2.84
2022-12-12T20:29:24.471Z,-2.88
2022-12-12T20:34:29.558Z,-2.88
2022-12-12T20:39:29.800Z,-2.91
2022-12-12T20:44:23.285Z,-2.98
2022-12-12T20:49:25.078Z,-2.99
2022-12-12T20:54:25.538Z,-3.09
2022-12-12T20:59:19.730Z,-3.05
2022-12-12T21:04:17.340Z,-3.07
2022-12-12T21:09:23.295Z,-3.12
2022-12-12T21:14:28.888Z,-3.20
2022-12-12T21:19:24.533Z,-3.17
2022-12-12T21:24:26.461Z,-3.22
2022-12-12T21:29:25.306Z,-3.27
2022-12-12T21:34:19.466Z,-3.27
2022-12-12T21:39:14.375Z,-3.35
2022-12-12T21:44:07.401Z,-3.39
2022-12-12T21:49:11.774Z,-3.35
2022-12-12T21:54:09.869Z,-3.36
2022-12-12T21:59:09.109Z,-3.37
2022-12-12T22:04:03.561Z,-3.40
2022-12-12T22:09:03.173Z,-3.37
2022-12-12T22:13:56.100Z,-3.42
2022-12-12T22:18:47.704Z,-3.45
2022-12-12T22:23:43.839Z,-3.59
2022-12-12T22:28:49.459Z,-3.52
2022-12-12T22:33:41.467Z,-3.53
2022-12-12T22:38:38.177Z,-3.52
2022-12-12T22:43:33.152Z,-3.56
2022-12-12T22:48:29.301Z,-3.57
2022-12-12T22:53:24.151Z,-3.61
2022-12-12T22:58:18.609Z,-3.69
2022-12-12T23:03:20.923Z,-3.61
2022-12-12T23:08:18.803Z,-3.72
2022-12-12T23:13:19.248Z,-3.64
2022-12-12T23:18:20.684Z,-3.67
2022-12-12T23:23:15.877Z,-3.67
2022-12-12T23:28:13.651Z,-3.72
2022-12-12T23:33:06.744Z,-3.79
2022-12-12T23:38:01.404Z,-3.78
2022-12-12T23:42:52.582Z,-3.83
2022-12-12T23:47:45.475Z,-3.85
2022-12-12T23:52:44.460Z,-3.86
2022-12-12T23:57:40.227Z,-3.90
